Time;durP1;ratioP1;P1;durP2;ratioP2;P2;SDS_P1;SDS_P2;PMS_P1;PMS_P2;Temp;Humidity;BMP_temperature;BMP_pressure;BME280_temperature;BME280_humidity;BME280_pressure;Samples;Min_cycle;Max_cycle;Signal;HPM_P1;HPM_P2
2023/05/02 00:00:14;;;;;;;8.77;5.18;;;13.30;79.60;;;;;;4970681;28;20035;-66
2023/05/02 00:02:40;;;;;;;7.85;4.88;;;13.30;79.80;;;;;;4968001;28;20030;-66
2023/05/02 00:05:06;;;;;;;7.05;4.88;;;13.30;79.80;;;;;;4973330;28;20085;-66
2023/05/02 00:07:32;;;;;;;9.13;5.50;;;13.20;80.30;;;;;;4968078;28;20027;-66
2023/05/02 00:10:01;;;;;;;9.35;4.90;;;13.10;80.30;;;;;;4964585;28;20038;-66
2023/05/02 00:12:27;;;;;;;10.57;4.97;;;13.10;80.70;;;;;;4969077;28;20053;-66
2023/05/02 00:14:53;;;;;;;8.35;5.35;;;13.00;80.90;;;;;;4972705;28;20030;-66
2023/05/02 00:17:19;;;;;;;9.15;4.80;;;13.00;81.20;;;;;;4975925;28;20031;-66
2023/05/02 00:19:45;;;;;;;8.00;4.47;;;12.90;81.10;;;;;;4965705;28;20030;-65
2023/05/02 00:22:11;;;;;;;6.53;4.40;;;12.90;81.20;;;;;;4969448;28;20407;-66
2023/05/02 00:24:36;;;;;;;7.40;4.82;;;12.80;81.30;;;;;;4971483;28;20069;-66
2023/05/02 00:27:03;;;;;;;10.35;4.93;;;12.80;81.20;;;;;;4966683;28;20039;-66
2023/05/02 00:29:29;;;;;;;6.57;4.75;;;12.80;81.20;;;;;;4966233;28;20090;-65
2023/05/02 00:31:55;;;;;;;7.40;4.53;;;12.80;81.70;;;;;;4971488;28;20039;-66
2023/05/02 00:34:21;;;;;;;7.85;4.28;;;12.70;82.00;;;;;;4968593;28;20097;-66
2023/05/02 00:36:47;;;;;;;6.25;4.15;;;12.70;82.40;;;;;;4969864;28;20038;-66
2023/05/02 00:39:13;;;;;;;8.85;4.93;;;12.70;82.60;;;;;;4972696;28;20041;-66
2023/05/02 00:41:39;;;;;;;9.38;5.32;;;12.60;82.60;;;;;;4970346;28;20030;-66
2023/05/02 00:44:05;;;;;;;6.78;4.78;;;12.60;83.10;;;;;;4967467;28;20054;-65
2023/05/02 00:46:30;;;;;;;6.88;4.38;;;12.60;82.80;;;;;;4969923;28;20046;-66
2023/05/02 00:48:56;;;;;;;6.18;4.32;;;12.50;82.60;;;;;;4972562;28;20034;-67
2023/05/02 00:51:22;;;;;;;10.18;5.07;;;12.50;83.30;;;;;;4969886;28;20039;-66
2023/05/02 00:53:48;;;;;;;6.85;4.32;;;12.50;83.90;;;;;;4974927;28;20038;-66
2023/05/02 00:56:14;;;;;;;5.80;4.25;;;12.50;84.50;;;;;;4969833;28;20041;-66
2023/05/02 00:58:40;;;;;;;8.63;4.13;;;12.50;84.80;;;;;;4969623;28;20098;-66
2023/05/02 01:01:28;;;;;;;7.40;4.63;;;12.50;85.20;;;;;;4968009;28;20946;-66
2023/05/02 01:04:00;;;;;;;7.65;4.32;;;12.50;86.00;;;;;;4959807;28;20795;-66
2023/05/02 01:06:40;;;;;;;5.97;4.45;;;12.50;86.00;;;;;;4949803;28;20642;-66
2023/05/02 01:09:42;;;;;;;8.43;4.50;;;12.40;86.10;;;;;;4964518;28;20042;-66
2023/05/02 01:12:27;;;;;;;6.40;4.03;;;12.40;86.30;;;;;;4970572;28;20292;-66
2023/05/02 01:14:55;;;;;;;6.53;4.25;;;12.40;86.40;;;;;;4976138;28;20037;-66
2023/05/02 01:17:26;;;;;;;5.88;3.80;;;12.40;86.60;;;;;;4967805;28;20030;-66
2023/05/02 01:19:57;;;;;;;5.45;4.50;;;12.40;86.90;;;;;;4970453;28;20022;-66
2023/05/02 01:22:26;;;;;;;7.22;3.58;;;12.40;87.40;;;;;;4962383;28;20034;-66
2023/05/02 01:25:36;;;;;;;7.78;3.97;;;12.30;87.40;;;;;;4960496;28;20113;-66
2023/05/02 01:29:04;;;;;;;6.90;3.53;;;12.30;88.10;;;;;;4966046;28;20117;-66
2023/05/02 01:31:35;;;;;;;5.03;3.28;;;12.30;88.20;;;;;;4937488;29;20172;-66
2023/05/02 01:34:03;;;;;;;6.15;3.90;;;12.30;88.60;;;;;;4938590;29;20035;-66
2023/05/02 01:36:31;;;;;;;6.03;3.75;;;12.30;89.20;;;;;;4948856;28;20041;-66
2023/05/02 01:39:00;;;;;;;6.03;3.70;;;12.20;89.60;;;;;;4966701;28;20030;-66
2023/05/02 01:41:27;;;;;;;5.70;3.15;;;12.20;90.00;;;;;;4962354;28;20057;-66
2023/05/02 01:43:58;;;;;;;4.32;3.03;;;12.20;90.20;;;;;;4961060;28;20047;-66
2023/05/02 01:46:27;;;;;;;5.28;2.97;;;12.20;90.40;;;;;;4962914;28;20034;-66
2023/05/02 01:48:56;;;;;;;7.72;3.45;;;12.10;90.70;;;;;;4964643;28;20054;-66
2023/05/02 01:51:29;;;;;;;10.38;3.88;;;12.10;91.10;;;;;;4970358;28;20142;-66
2023/05/02 01:53:56;;;;;;;6.00;3.72;;;12.10;91.30;;;;;;4967507;28;20139;-66
2023/05/02 01:56:24;;;;;;;6.60;4.40;;;12.00;91.40;;;;;;4965553;28;20030;-66
2023/05/02 01:58:51;;;;;;;4.13;3.20;;;12.00;91.60;;;;;;4971771;28;20042;-66
2023/05/02 02:01:18;;;;;;;6.80;3.55;;;11.90;92.00;;;;;;4963741;28;20105;-66
2023/05/02 02:03:46;;;;;;;6.32;3.83;;;11.90;92.20;;;;;;4971811;28;20720;-66
2023/05/02 02:06:13;;;;;;;6.32;3.53;;;11.80;92.40;;;;;;4964068;28;20031;-66
2023/05/02 02:08:39;;;;;;;5.82;3.30;;;11.70;92.70;;;;;;4967136;28;20062;-66
2023/05/02 02:11:10;;;;;;;4.80;3.17;;;11.70;92.90;;;;;;4969300;28;20143;-66
2023/05/02 02:13:46;;;;;;;6.50;3.60;;;11.70;93.20;;;;;;4965237;28;20038;-66
2023/05/02 02:16:15;;;;;;;4.57;3.10;;;11.70;93.60;;;;;;4952450;28;20074;-66
2023/05/02 02:18:44;;;;;;;5.72;3.30;;;11.60;94.00;;;;;;4972227;28;20395;-66
2023/05/02 02:21:11;;;;;;;6.40;3.15;;;11.60;94.20;;;;;;4973211;28;20038;-66
2023/05/02 02:23:38;;;;;;;5.93;3.20;;;11.60;94.50;;;;;;4959724;28;20031;-66
2023/05/02 02:26:06;;;;;;;5.38;3.13;;;11.60;94.70;;;;;;4965328;28;20046;-66
2023/05/02 02:28:33;;;;;;;4.80;2.80;;;11.50;95.00;;;;;;4968418;28;20571;-66
2023/05/02 02:30:59;;;;;;;5.10;2.97;;;11.50;95.20;;;;;;4966298;28;20624;-66
2023/05/02 02:33:29;;;;;;;5.55;3.13;;;11.50;95.40;;;;;;4969919;28;20149;-66
2023/05/02 02:36:09;;;;;;;4.95;3.22;;;11.50;95.70;;;;;;4966566;28;20109;-66
2023/05/02 02:39:18;;;;;;;5.32;2.97;;;11.40;95.80;;;;;;4963561;28;20034;-66
2023/05/02 02:42:04;;;;;;;3.65;2.80;;;11.40;96.10;;;;;;4933220;28;20062;-66
2023/05/02 02:44:59;;;;;;;5.95;2.97;;;11.40;96.10;;;;;;4952095;28;20062;-66
2023/05/02 02:48:04;;;;;;;4.65;3.35;;;11.40;96.40;;;;;;4971769;28;20038;-65
2023/05/02 02:50:56;;;;;;;5.22;2.97;;;11.40;96.60;;;;;;4933925;28;20043;-66
2023/05/02 02:53:37;;;;;;;3.60;2.78;;;11.40;96.80;;;;;;4954643;28;20038;-66
2023/05/02 02:56:14;;;;;;;5.63;3.00;;;11.30;97.10;;;;;;4954910;28;20042;-68
2023/05/02 02:59:09;;;;;;;6.88;3.28;;;11.30;97.40;;;;;;4958230;28;20051;-68
2023/05/02 03:01:38;;;;;;;8.45;3.47;;;11.30;97.60;;;;;;4966949;28;20836;-67
2023/05/02 03:04:07;;;;;;;3.80;2.80;;;11.30;97.80;;;;;;4968935;28;20565;-68
2023/05/02 03:06:36;;;;;;;5.82;2.60;;;11.30;97.90;;;;;;4970292;28;20033;-68
2023/05/02 03:09:03;;;;;;;4.70;2.88;;;11.30;98.00;;;;;;4963986;28;20030;-68
2023/05/02 03:11:29;;;;;;;5.97;3.35;;;11.20;98.00;;;;;;4977983;28;20061;-68
2023/05/02 03:13:56;;;;;;;6.05;3.00;;;11.30;98.00;;;;;;4965230;28;20645;-68
2023/05/02 03:16:35;;;;;;;3.92;2.60;;;11.30;98.00;;;;;;4971969;28;20577;-67
2023/05/02 03:19:04;;;;;;;3.55;2.70;;;11.20;97.90;;;;;;4971718;28;20081;-66
2023/05/02 03:21:31;;;;;;;7.30;2.78;;;11.20;98.00;;;;;;4967407;28;20023;-68
2023/05/02 03:24:03;;;;;;;4.05;2.53;;;11.20;98.00;;;;;;4954521;28;20638;-67
2023/05/02 03:26:29;;;;;;;3.75;2.72;;;11.20;98.10;;;;;;4968965;28;20042;-68
2023/05/02 03:28:56;;;;;;;4.45;2.72;;;11.20;98.10;;;;;;4966314;28;20581;-69
2023/05/02 03:31:28;;;;;;;6.03;2.92;;;11.20;98.10;;;;;;4961515;28;20034;-68
2023/05/02 03:33:54;;;;;;;4.70;2.67;;;11.20;98.20;;;;;;4969649;28;20077;-68
2023/05/02 03:36:20;;;;;;;4.93;2.85;;;11.20;98.30;;;;;;4961573;28;20041;-68
2023/05/02 03:38:46;;;;;;;3.58;2.35;;;11.20;98.50;;;;;;4968345;28;20406;-66
2023/05/02 03:41:13;;;;;;;5.00;2.33;;;11.10;98.60;;;;;;4943957;28;20023;-68
2023/05/02 03:43:40;;;;;;;4.75;2.60;;;11.10;98.50;;;;;;4970438;28;20729;-69
2023/05/02 03:46:08;;;;;;;3.58;2.15;;;11.20;98.70;;;;;;4960640;28;20042;-68
2023/05/02 03:48:36;;;;;;;4.22;2.08;;;11.20;98.80;;;;;;4967562;28;20053;-65
2023/05/02 03:51:04;;;;;;;4.10;2.63;;;11.20;98.90;;;;;;4964730;28;20043;-68
2023/05/02 03:53:37;;;;;;;4.90;2.40;;;11.30;98.60;;;;;;4963150;28;20030;-68
2023/05/02 03:56:06;;;;;;;2.58;2.03;;;11.40;98.50;;;;;;4969375;28;20030;-68
2023/05/02 03:58:41;;;;;;;4.10;2.28;;;11.50;98.60;;;;;;4962746;28;20034;-68
2023/05/02 04:01:14;;;;;;;4.93;2.30;;;11.50;98.60;;;;;;4962580;28;20031;-68
2023/05/02 04:03:40;;;;;;;4.88;2.13;;;11.60;98.60;;;;;;4965118;28;20033;-68
2023/05/02 04:06:08;;;;;;;3.50;2.40;;;11.70;98.50;;;;;;4970583;28;20924;-68
2023/05/02 04:08:35;;;;;;;4.57;2.10;;;11.70;98.40;;;;;;4966542;28;20035;-68
2023/05/02 04:11:01;;;;;;;2.20;1.98;;;11.70;98.40;;;;;;4962856;28;20035;-67
2023/05/02 04:13:28;;;;;;;5.18;1.85;;;11.80;98.20;;;;;;4963565;28;20121;-68
2023/05/02 04:15:55;;;;;;;4.78;1.98;;;11.80;98.10;;;;;;4970888;28;20031;-67
2023/05/02 04:18:23;;;;;;;4.55;2.47;;;11.80;97.70;;;;;;4965905;28;20057;-67
2023/05/02 04:20:50;;;;;;;1.95;1.60;;;11.90;97.60;;;;;;4969962;28;20694;-67
2023/05/02 04:23:18;;;;;;;4.20;2.25;;;11.90;97.70;;;;;;4965052;28;20478;-67
2023/05/02 04:25:54;;;;;;;3.40;1.80;;;12.00;97.70;;;;;;4956145;28;20037;-66
2023/05/02 04:28:25;;;;;;;2.78;2.08;;;12.00;97.80;;;;;;4959915;28;20034;-66
2023/05/02 04:30:52;;;;;;;3.83;2.10;;;12.00;97.60;;;;;;4969264;28;20104;-67
2023/05/02 04:33:20;;;;;;;5.25;2.00;;;12.00;97.60;;;;;;4961988;28;20042;-65
2023/05/02 04:35:47;;;;;;;2.80;2.28;;;12.10;97.70;;;;;;4967104;28;20042;-66
2023/05/02 04:38:14;;;;;;;3.35;1.88;;;12.10;97.60;;;;;;4966539;28;20152;-66
2023/05/02 04:40:42;;;;;;;4.15;1.90;;;12.20;97.40;;;;;;4962081;28;20046;-67
2023/05/02 04:43:08;;;;;;;3.20;2.13;;;12.20;97.20;;;;;;4953686;28;20131;-66
2023/05/02 04:45:39;;;;;;;3.58;2.13;;;12.20;97.20;;;;;;4944142;28;20049;-66
2023/05/02 04:48:11;;;;;;;2.65;1.95;;;12.20;97.20;;;;;;4949306;28;20094;-67
2023/05/02 04:50:37;;;;;;;4.20;2.17;;;12.30;97.20;;;;;;4956530;28;20038;-66
2023/05/02 04:53:03;;;;;;;3.00;2.00;;;12.30;97.20;;;;;;4966191;28;20889;-65
2023/05/02 04:55:30;;;;;;;3.00;2.05;;;12.40;97.20;;;;;;4962120;28;20101;-66
2023/05/02 04:57:56;;;;;;;4.28;2.03;;;12.40;97.30;;;;;;4956423;28;20035;-66
2023/05/02 05:00:23;;;;;;;3.72;2.40;;;12.40;97.30;;;;;;4963636;28;20027;-66
2023/05/02 05:02:48;;;;;;;5.80;2.55;;;12.40;97.20;;;;;;4969281;28;20163;-67
2023/05/02 05:05:15;;;;;;;3.80;2.47;;;12.40;97.00;;;;;;4964556;28;20121;-67
2023/05/02 05:07:41;;;;;;;3.55;2.00;;;12.50;97.00;;;;;;4978346;28;20467;-66
2023/05/02 05:10:10;;;;;;;3.30;1.85;;;12.60;96.90;;;;;;4973031;28;20022;-66
2023/05/02 05:12:41;;;;;;;3.50;2.15;;;12.60;96.80;;;;;;4963062;28;20035;-66
2023/05/02 05:15:08;;;;;;;6.28;2.92;;;12.60;96.90;;;;;;4969943;28;20038;-67
2023/05/02 05:17:35;;;;;;;5.22;2.67;;;12.70;96.70;;;;;;4966729;28;20150;-66
2023/05/02 05:20:02;;;;;;;4.68;2.83;;;12.70;96.30;;;;;;4969544;28;20049;-66
2023/05/02 05:22:29;;;;;;;7.07;3.10;;;12.70;95.90;;;;;;4960523;28;20070;-66
2023/05/02 05:24:55;;;;;;;6.20;2.70;;;12.70;94.90;;;;;;4965418;28;20038;-66
2023/05/02 05:27:27;;;;;;;6.82;3.22;;;12.70;94.80;;;;;;4979893;28;20466;-66
2023/05/02 05:29:53;;;;;;;10.10;4.10;;;12.80;94.90;;;;;;4954837;28;20043;-66
2023/05/02 05:32:19;;;;;;;5.32;3.67;;;12.90;94.50;;;;;;4968739;28;20818;-66
2023/05/02 05:34:45;;;;;;;6.10;3.25;;;13.10;94.30;;;;;;4960828;28;20026;-66
2023/05/02 05:37:11;;;;;;;7.00;3.47;;;13.30;93.90;;;;;;4960697;28;20124;-66
2023/05/02 05:39:37;;;;;;;6.45;3.60;;;13.50;93.70;;;;;;4970019;28;20129;-66
2023/05/02 05:42:05;;;;;;;7.43;3.65;;;13.90;93.50;;;;;;4955752;28;20027;-66
2023/05/02 05:44:31;;;;;;;5.32;3.95;;;14.40;92.60;;;;;;4965498;28;20023;-66
2023/05/02 05:46:58;;;;;;;8.55;3.72;;;15.00;91.70;;;;;;4969685;28;20841;-66
2023/05/02 05:49:25;;;;;;;5.63;3.88;;;15.40;90.10;;;;;;4962026;28;20554;-66
2023/05/02 05:51:52;;;;;;;5.78;3.67;;;15.90;87.00;;;;;;4969443;28;20380;-66
2023/05/02 05:54:18;;;;;;;6.88;3.50;;;16.10;85.40;;;;;;4967116;28;20062;-66
2023/05/02 05:56:44;;;;;;;7.85;3.92;;;16.40;84.00;;;;;;4964326;28;20535;-66
2023/05/02 05:59:14;;;;;;;5.65;3.50;;;16.60;82.80;;;;;;4970670;28;20026;-65
2023/05/02 06:01:40;;;;;;;7.38;3.60;;;16.90;81.40;;;;;;4959634;28;20031;-66
2023/05/02 06:04:07;;;;;;;11.23;3.78;;;17.10;80.00;;;;;;4968007;28;20044;-66
2023/05/02 06:06:36;;;;;;;5.53;3.75;;;17.40;79.70;;;;;;4981532;28;20038;-66
2023/05/02 06:09:03;;;;;;;7.30;3.95;;;17.70;77.50;;;;;;4966685;28;20525;-66
2023/05/02 06:11:29;;;;;;;10.75;4.57;;;17.80;76.50;;;;;;4971052;28;20502;-66
2023/05/02 06:13:55;;;;;;;9.35;4.35;;;17.80;76.80;;;;;;4959070;28;20042;-66
2023/05/02 06:16:22;;;;;;;8.13;5.13;;;17.60;77.60;;;;;;4957607;28;20032;-65
2023/05/02 06:18:51;;;;;;;7.65;5.32;;;17.30;77.50;;;;;;4959472;28;20034;-66
2023/05/02 06:21:17;;;;;;;12.07;5.55;;;17.10;78.30;;;;;;4973706;28;20201;-65
2023/05/02 06:23:43;;;;;;;9.80;5.57;;;16.90;79.40;;;;;;4971466;28;20840;-66
2023/05/02 06:26:09;;;;;;;12.00;5.57;;;16.70;80.70;;;;;;4970657;28;20185;-66
2023/05/02 06:28:36;;;;;;;11.57;6.07;;;16.60;81.00;;;;;;4966870;28;20128;-66
2023/05/02 06:31:04;;;;;;;8.75;5.60;;;16.50;82.00;;;;;;4960127;28;20653;-66
2023/05/02 06:33:31;;;;;;;9.20;5.97;;;16.40;82.00;;;;;;4961438;28;20031;-66
2023/05/02 06:35:58;;;;;;;12.10;6.15;;;16.30;82.90;;;;;;4964682;28;20281;-66
2023/05/02 06:38:24;;;;;;;8.70;5.22;;;16.10;83.00;;;;;;4967064;28;20478;-65
2023/05/02 06:40:51;;;;;;;11.65;5.45;;;15.90;83.40;;;;;;4967763;28;20042;-66
2023/05/02 06:43:17;;;;;;;12.32;6.38;;;15.70;84.70;;;;;;4971339;28;20067;-66
2023/05/02 06:45:43;;;;;;;8.77;5.63;;;15.60;85.30;;;;;;4969397;28;20041;-66
2023/05/02 06:48:10;;;;;;;11.57;5.95;;;15.40;86.20;;;;;;4971130;28;20057;-66
2023/05/02 06:50:36;;;;;;;10.35;6.68;;;15.30;87.90;;;;;;4957645;28;20031;-66
2023/05/02 06:53:03;;;;;;;12.60;7.47;;;15.20;88.90;;;;;;4968558;28;20038;-65
2023/05/02 06:55:28;;;;;;;22.10;12.90;;;15.10;90.00;;;;;;4969582;28;20073;-65
2023/05/02 06:57:54;;;;;;;29.10;15.45;;;15.00;90.60;;;;;;4973662;28;20027;-66
2023/05/02 07:00:20;;;;;;;33.28;18.35;;;15.00;90.90;;;;;;4965274;28;20030;-65
2023/05/02 07:02:47;;;;;;;18.98;11.40;;;15.00;91.40;;;;;;4964060;28;20046;-65
2023/05/02 07:05:14;;;;;;;14.85;8.95;;;15.00;91.90;;;;;;4971740;28;20814;-65
2023/05/02 07:07:43;;;;;;;17.23;8.65;;;15.10;92.10;;;;;;4971133;28;20769;-65
2023/05/02 07:10:10;;;;;;;14.38;9.40;;;15.30;92.20;;;;;;4970601;28;20042;-65
2023/05/02 07:12:37;;;;;;;13.35;8.38;;;15.50;91.50;;;;;;4967779;28;20145;-66
2023/05/02 07:15:04;;;;;;;12.40;7.80;;;15.70;91.20;;;;;;4970963;28;20026;-66
2023/05/02 07:17:31;;;;;;;13.00;7.13;;;15.80;91.20;;;;;;4970693;28;20038;-66
2023/05/02 07:19:57;;;;;;;14.27;7.40;;;16.00;90.90;;;;;;4966655;28;20053;-66
2023/05/02 07:22:22;;;;;;;10.82;6.85;;;16.00;90.60;;;;;;4955323;28;20481;-66
2023/05/02 07:24:55;;;;;;;10.43;6.18;;;16.00;90.80;;;;;;4962341;28;20027;-66
2023/05/02 07:27:21;;;;;;;12.25;6.65;;;16.00;90.90;;;;;;4966121;28;20055;-66
2023/05/02 07:29:47;;;;;;;9.27;6.53;;;16.00;90.30;;;;;;4963540;28;20105;-66
2023/05/02 07:32:13;;;;;;;9.85;6.82;;;16.00;90.20;;;;;;4964471;28;20382;-66
2023/05/02 07:34:39;;;;;;;11.38;6.55;;;15.90;90.30;;;;;;4968784;28;20092;-66
2023/05/02 07:37:04;;;;;;;9.30;6.32;;;15.80;90.40;;;;;;4970218;28;20031;-66
2023/05/02 07:39:32;;;;;;;11.70;6.75;;;15.80;90.70;;;;;;4964935;28;20034;-66
2023/05/02 07:41:58;;;;;;;8.77;5.90;;;15.70;91.00;;;;;;4967339;28;20157;-66
2023/05/02 07:44:23;;;;;;;10.18;5.88;;;15.70;91.10;;;;;;4970817;28;20030;-66
2023/05/02 07:46:50;;;;;;;9.32;6.15;;;15.70;91.10;;;;;;4973417;28;20845;-66
2023/05/02 07:49:16;;;;;;;12.50;6.10;;;15.80;91.10;;;;;;4969867;28;20038;-66
2023/05/02 07:51:43;;;;;;;7.97;5.18;;;15.70;91.40;;;;;;4969343;28;20034;-66
2023/05/02 07:54:18;;;;;;;9.43;5.75;;;15.80;91.10;;;;;;4966879;28;20261;-66
2023/05/02 07:56:44;;;;;;;8.80;5.25;;;15.80;90.90;;;;;;4965220;28;20060;-66
2023/05/02 07:59:10;;;;;;;9.60;6.43;;;15.80;90.90;;;;;;4965970;28;20031;-66
2023/05/02 08:01:37;;;;;;;11.38;6.70;;;15.80;91.10;;;;;;4964006;28;20033;-66
2023/05/02 08:04:03;;;;;;;11.73;6.30;;;15.80;91.30;;;;;;4968375;28;20037;-66
2023/05/02 08:06:31;;;;;;;11.48;6.45;;;15.90;91.00;;;;;;4970269;28;20038;-66
2023/05/02 08:08:57;;;;;;;11.32;6.07;;;16.00;91.40;;;;;;4967105;28;20043;-66
2023/05/02 08:11:24;;;;;;;9.20;6.05;;;16.10;90.90;;;;;;4966136;28;20105;-66
2023/05/02 08:13:51;;;;;;;10.60;6.47;;;16.20;90.80;;;;;;4971957;28;20043;-66
2023/05/02 08:16:17;;;;;;;8.80;5.88;;;16.40;90.60;;;;;;4970021;28;20099;-66
2023/05/02 08:18:43;;;;;;;13.95;7.03;;;16.60;90.40;;;;;;4958639;28;20023;-66
2023/05/02 08:21:09;;;;;;;11.60;7.35;;;16.80;90.50;;;;;;4966389;28;20041;-66
2023/05/02 08:23:36;;;;;;;23.42;12.43;;;17.20;90.00;;;;;;4968713;28;20721;-66
2023/05/02 08:26:03;;;;;;;10.07;6.97;;;17.60;87.20;;;;;;4966925;28;20057;-66
2023/05/02 08:28:29;;;;;;;10.43;6.40;;;18.00;87.40;;;;;;4964806;28;20027;-66
2023/05/02 08:30:55;;;;;;;13.75;8.20;;;18.40;84.30;;;;;;4963141;28;20043;-66
2023/05/02 08:33:21;;;;;;;12.00;7.53;;;18.60;83.50;;;;;;4960755;28;20035;-66
2023/05/02 08:35:47;;;;;;;10.05;6.38;;;18.90;82.40;;;;;;4965515;28;20043;-66
2023/05/02 08:38:13;;;;;;;10.75;6.25;;;18.90;80.30;;;;;;4964416;28;20038;-66
2023/05/02 08:40:39;;;;;;;10.73;5.60;;;18.90;81.00;;;;;;4971365;28;20081;-66
2023/05/02 08:43:05;;;;;;;11.63;6.55;;;18.80;80.20;;;;;;4971567;28;20035;-66
2023/05/02 08:45:37;;;;;;;8.45;5.57;;;18.60;79.50;;;;;;4967208;28;20038;-66
2023/05/02 08:48:11;;;;;;;8.68;5.03;;;18.40;80.30;;;;;;4964658;28;20088;-66
2023/05/02 08:50:40;;;;;;;10.25;5.60;;;18.20;81.10;;;;;;4965426;28;20055;-66
2023/05/02 08:53:08;;;;;;;7.50;4.53;;;18.00;81.90;;;;;;4964573;28;20039;-66
2023/05/02 08:55:38;;;;;;;7.95;4.60;;;17.80;82.80;;;;;;4964649;28;20035;-66
2023/05/02 08:58:05;;;;;;;7.10;4.72;;;17.60;83.60;;;;;;4963155;28;20054;-66
2023/05/02 09:00:32;;;;;;;10.30;6.10;;;17.50;84.20;;;;;;4965147;28;20450;-66
2023/05/02 09:03:25;;;;;;;9.70;5.95;;;17.40;82.80;;;;;;4968666;28;20054;-66
2023/05/02 09:05:54;;;;;;;7.45;4.65;;;17.20;84.90;;;;;;4965357;28;20039;-67
2023/05/02 09:08:24;;;;;;;5.97;4.30;;;17.10;85.90;;;;;;4965787;28;20030;-67
2023/05/02 09:10:50;;;;;;;7.15;4.78;;;17.10;86.50;;;;;;4973571;28;20042;-67
2023/05/02 09:13:35;;;;;;;8.05;4.63;;;17.10;86.50;;;;;;4966856;28;20035;-66
2023/05/02 09:16:04;;;;;;;6.38;4.28;;;17.20;87.40;;;;;;4964191;28;20768;-66
2023/05/02 09:18:32;;;;;;;7.35;4.03;;;17.30;87.60;;;;;;4955379;28;20026;-67
2023/05/02 09:20:59;;;;;;;13.73;5.78;;;17.40;86.70;;;;;;4969149;28;20039;-66
2023/05/02 09:23:35;;;;;;;6.88;4.20;;;17.50;86.20;;;;;;4961390;28;20059;-66
2023/05/02 09:26:01;;;;;;;5.28;2.95;;;17.50;86.20;;;;;;4962227;28;20100;-67
2023/05/02 09:28:41;;;;;;;8.07;4.05;;;17.40;85.70;;;;;;4962232;28;20507;-67
2023/05/02 09:31:09;;;;;;;4.45;3.03;;;17.30;86.10;;;;;;4958666;28;20177;-66
2023/05/02 09:33:36;;;;;;;10.20;6.60;;;17.30;85.40;;;;;;4970856;28;20031;-67
2023/05/02 09:36:02;;;;;;;6.35;4.15;;;17.20;85.90;;;;;;4959866;28;20050;-67
2023/05/02 09:38:28;;;;;;;5.97;3.50;;;17.20;85.80;;;;;;4972459;28;20041;-67
2023/05/02 09:40:57;;;;;;;6.53;3.58;;;17.20;85.70;;;;;;4960464;28;20042;-66
2023/05/02 09:43:23;;;;;;;5.22;3.70;;;17.00;86.30;;;;;;4951218;28;20034;-66
2023/05/02 09:46:09;;;;;;;7.78;3.72;;;16.90;86.60;;;;;;4961063;28;20336;-65
2023/05/02 09:48:55;;;;;;;6.20;3.42;;;16.80;86.90;;;;;;4958999;28;20540;-66
2023/05/02 09:51:22;;;;;;;5.63;3.72;;;16.50;87.50;;;;;;4957475;28;20042;-66
2023/05/02 09:53:48;;;;;;;4.93;3.13;;;16.30;89.40;;;;;;4956258;28;20125;-66
2023/05/02 09:56:14;;;;;;;8.00;3.97;;;16.20;90.00;;;;;;4958255;28;20043;-66
2023/05/02 09:58:40;;;;;;;9.73;4.53;;;16.10;90.50;;;;;;4957030;28;20721;-66
2023/05/02 10:01:06;;;;;;;6.78;4.07;;;16.10;90.70;;;;;;4968217;28;20043;-66
2023/05/02 10:03:36;;;;;;;5.35;4.07;;;16.10;91.00;;;;;;4960194;28;20027;-66
2023/05/02 10:06:03;;;;;;;5.72;3.17;;;16.10;90.70;;;;;;4962365;28;20034;-66
2023/05/02 10:08:32;;;;;;;3.95;2.40;;;16.00;91.10;;;;;;4969277;28;20030;-66
2023/05/02 10:10:59;;;;;;;3.42;2.22;;;15.60;91.70;;;;;;4963269;28;20046;-66
2023/05/02 10:13:26;;;;;;;6.55;2.42;;;15.40;92.40;;;;;;4965497;28;20046;-66
2023/05/02 10:16:00;;;;;;;4.47;2.42;;;15.20;92.70;;;;;;4974453;28;20034;-66
2023/05/02 10:18:31;;;;;;;5.20;2.47;;;15.10;93.20;;;;;;4971796;28;20110;-66
2023/05/02 10:21:00;;;;;;;5.40;2.15;;;14.90;93.30;;;;;;4960704;28;20402;-67
2023/05/02 10:23:29;;;;;;;6.18;2.40;;;14.70;92.80;;;;;;4964717;28;20143;-66
2023/05/02 10:25:57;;;;;;;5.65;2.10;;;14.50;92.70;;;;;;4969059;28;20121;-66
2023/05/02 10:28:25;;;;;;;6.18;2.15;;;14.40;93.40;;;;;;4960695;28;20504;-66
2023/05/02 10:30:51;;;;;;;6.55;2.95;;;14.40;93.50;;;;;;4962605;28;20421;-66
2023/05/02 10:33:20;;;;;;;7.47;3.47;;;14.40;93.50;;;;;;4967872;28;20050;-66
2023/05/02 10:35:46;;;;;;;7.10;3.63;;;14.40;93.20;;;;;;4969344;28;20038;-66
2023/05/02 10:38:15;;;;;;;7.15;3.75;;;14.50;92.40;;;;;;4963870;28;20045;-66
2023/05/02 10:40:45;;;;;;;9.05;3.47;;;14.50;91.90;;;;;;4970794;28;20158;-66
2023/05/02 10:43:15;;;;;;;7.20;3.20;;;14.30;91.70;;;;;;4967202;28;20037;-66
2023/05/02 10:45:41;;;;;;;8.20;3.10;;;14.30;91.60;;;;;;4969475;28;20073;-66
2023/05/02 10:48:16;;;;;;;8.07;3.28;;;14.20;91.30;;;;;;4968149;28;20050;-66
2023/05/02 10:50:50;;;;;;;8.15;3.20;;;14.20;91.30;;;;;;4969065;28;20385;-66
2023/05/02 10:53:33;;;;;;;10.00;2.80;;;14.20;91.30;;;;;;4965926;28;20038;-65
2023/05/02 10:56:20;;;;;;;8.85;3.30;;;14.20;91.30;;;;;;4967017;28;20767;-66
2023/05/02 10:58:52;;;;;;;9.30;3.83;;;14.30;90.50;;;;;;4960182;28;20033;-65
2023/05/02 11:01:25;;;;;;;10.55;3.30;;;14.20;90.00;;;;;;4967609;28;20043;-66
2023/05/02 11:04:01;;;;;;;9.35;3.55;;;14.20;90.40;;;;;;4960668;28;20042;-66
2023/05/02 11:06:29;;;;;;;7.28;2.83;;;14.30;89.70;;;;;;4965464;28;20038;-64
2023/05/02 11:09:17;;;;;;;11.27;3.60;;;14.40;89.00;;;;;;4964773;28;20038;-66
2023/05/02 11:11:43;;;;;;;12.35;3.70;;;14.50;88.20;;;;;;4961037;28;20030;-66
2023/05/02 11:14:10;;;;;;;9.98;3.17;;;14.60;89.20;;;;;;4968813;28;20087;-67
2023/05/02 11:17:04;;;;;;;11.93;3.72;;;14.70;88.10;;;;;;4960744;28;20395;-68
2023/05/02 11:19:55;;;;;;;10.75;3.38;;;14.70;87.10;;;;;;4963631;28;20524;-67
2023/05/02 11:22:25;;;;;;;9.50;3.28;;;14.90;87.20;;;;;;4963411;28;20105;-67
2023/05/02 11:24:52;;;;;;;11.02;3.17;;;14.90;86.70;;;;;;4962836;28;20061;-67
2023/05/02 11:27:30;;;;;;;9.27;3.28;;;15.00;85.20;;;;;;4953179;28;20034;-66
2023/05/02 11:29:57;;;;;;;12.73;3.45;;;15.00;85.70;;;;;;4961044;28;20027;-67
2023/05/02 11:32:44;;;;;;;8.68;3.00;;;15.10;84.60;;;;;;4961976;28;20046;-67
2023/05/02 11:35:31;;;;;;;9.35;2.95;;;15.00;82.50;;;;;;4964770;28;20038;-67
2023/05/02 11:38:10;;;;;;;7.43;2.75;;;14.90;84.00;;;;;;4966425;28;20094;-67
2023/05/02 11:40:36;;;;;;;11.60;3.10;;;14.80;83.90;;;;;;4979091;28;20395;-67
2023/05/02 11:43:17;;;;;;;17.75;3.60;;;14.70;84.30;;;;;;4963578;28;20063;-66
2023/05/02 11:45:43;;;;;;;14.15;4.05;;;14.70;84.80;;;;;;4968339;28;20039;-66
2023/05/02 11:48:12;;;;;;;7.28;2.83;;;14.60;85.00;;;;;;4970071;28;20038;-66
2023/05/02 11:51:02;;;;;;;9.35;3.67;;;14.70;85.20;;;;;;4970715;28;20097;-66
2023/05/02 11:53:28;;;;;;;17.55;4.30;;;14.90;84.60;;;;;;4967925;28;20250;-65
2023/05/02 11:55:59;;;;;;;10.38;3.15;;;15.00;84.50;;;;;;4965847;28;20038;-63
2023/05/02 11:58:28;;;;;;;10.75;2.85;;;15.10;83.60;;;;;;4965669;28;20035;-66
2023/05/02 12:00:55;;;;;;;6.95;2.67;;;15.20;81.60;;;;;;4973004;28;20038;-66
2023/05/02 12:03:32;;;;;;;12.50;3.30;;;15.10;81.60;;;;;;4967280;28;20584;-66
2023/05/02 12:06:15;;;;;;;10.20;3.03;;;15.10;82.80;;;;;;4967198;28;20127;-66
2023/05/02 12:08:43;;;;;;;13.10;2.80;;;15.20;82.40;;;;;;4965742;28;20030;-66
2023/05/02 12:11:11;;;;;;;10.70;2.97;;;15.20;81.50;;;;;;4968272;28;20153;-66
2023/05/02 12:13:47;;;;;;;13.10;3.00;;;15.30;82.60;;;;;;4967805;28;20041;-66
2023/05/02 12:16:13;;;;;;;10.57;3.42;;;15.50;83.00;;;;;;4965066;28;20144;-66
2023/05/02 12:18:39;;;;;;;8.60;3.15;;;15.70;82.10;;;;;;4973702;28;20022;-66
2023/05/02 12:21:06;;;;;;;7.93;2.60;;;15.80;79.90;;;;;;4972931;28;20034;-66
2023/05/02 12:23:32;;;;;;;9.38;2.25;;;16.00;78.60;;;;;;4966777;28;20126;-65
2023/05/02 12:25:58;;;;;;;10.48;3.22;;;16.10;77.40;;;;;;4969367;28;20039;-67
2023/05/02 12:28:24;;;;;;;6.15;2.60;;;16.00;78.50;;;;;;4967261;28;20037;-67
2023/05/02 12:30:50;;;;;;;11.27;3.28;;;16.20;77.20;;;;;;4971255;28;20069;-66
2023/05/02 12:33:17;;;;;;;8.48;2.78;;;16.20;76.30;;;;;;4970159;28;20049;-67
2023/05/02 12:35:44;;;;;;;9.20;2.72;;;16.20;76.30;;;;;;4968423;28;20050;-67
2023/05/02 12:38:21;;;;;;;6.97;2.13;;;16.10;77.70;;;;;;4972299;28;20100;-66
2023/05/02 12:40:52;;;;;;;9.38;2.40;;;16.20;77.50;;;;;;4965541;28;20022;-67
2023/05/02 12:43:19;;;;;;;8.52;2.80;;;16.30;75.70;;;;;;4967471;28;20118;-66
2023/05/02 12:45:47;;;;;;;12.43;3.30;;;16.40;75.60;;;;;;4967795;28;20027;-67
2023/05/02 12:48:23;;;;;;;10.85;3.33;;;16.40;74.70;;;;;;4964635;28;20754;-67
2023/05/02 12:50:49;;;;;;;8.43;3.33;;;16.50;76.10;;;;;;4963081;28;20050;-65
2023/05/02 12:53:15;;;;;;;12.18;2.63;;;16.70;74.50;;;;;;4965838;28;20050;-67
2023/05/02 12:55:41;;;;;;;10.70;3.00;;;16.80;74.20;;;;;;4964156;28;21004;-66